Weather at Lazume Airfield

Public forecast

Using degrees Celsius for public forecast. Weather courtesy of forecast.io.

Closest aviation weather report (METAR) to Lazume Airfield

Closest report is Chişinău International Airport, 156.2 nm (289.3 km) WNW.

2024/07/25 19:00 (retrieved 26 minutes ago)

LUKK 251900Z 29005KT CAVOK 20/18 Q1007 NOSIG

Closest aviation forecast (TAF) to Lazume Airfield

Closest forecast is Chişinău International Airport, 156.2 nm (289.3 km) WNW.

2024/07/25 18:06 (retrieved 1 hour ago)

TAF LUKK 251704Z 2518/2618 35006KT 9999 SCT030 TEMPO 2518/2521 3000 TSRA SCT015 BKN030CB TEMPO 2522/2605 4000 SHRA BR BKN010 SCT035CB TEMPO 2605/2610 SCT040CB TEMPO 2610/2615 VRB16G26KT 4000 TSRA SCT035CB